Carlson, Washington
Current Conditions -  °F | °C
As of 1:48 AM on Friday 28 Nov 2014 (Local Time) from KGRF Reporting Station
Drizzle Drizzle  
Wind Chill: 52°   Ceiling: 2600
Heat Index: 52°   Visibility: 10mi
Dew Point: 52°   Wind: 15mph
Humidity: 100%   Direction: 170°S
Pressure: 29.68"   Gusts: NA
Location:  46.6944°N, 122.245°W
Report Text: KGRF 280948Z AUTO 17013KT 10SM DZ FEW006 BKN026 BKN032 OVC140 11/11 A2968 RMK AO2
Loading
Personal Weather Stations






























Interactive Weather Map New forecast layout! Learn more

10-Day Weather Forecast

Advertisements
Track Severe Weather on mobile